createdAt,value
2018-02-20T00:02:01.954Z,60.95
2018-02-20T00:04:32.648Z,61.35
2018-02-20T00:07:01.094Z,61.79
2018-02-20T00:09:29.542Z,61.27
2018-02-20T00:11:58.911Z,60.84
2018-02-20T00:14:27.500Z,61.31
2018-02-20T00:16:56.064Z,61.48
2018-02-20T00:19:24.592Z,62.18
2018-02-20T00:21:53.108Z,62.39
2018-02-20T00:24:21.631Z,62.11
2018-02-20T00:26:50.631Z,61.77
2018-02-20T00:29:19.064Z,62.22
2018-02-20T00:31:47.537Z,62.12
2018-02-20T00:34:16.099Z,62.33
2018-02-20T00:36:44.535Z,62.18
2018-02-20T00:39:13.230Z,62.34
2018-02-20T00:41:41.868Z,62.00
2018-02-20T00:44:10.618Z,62.06
2018-02-20T00:46:39.213Z,61.75
2018-02-20T00:49:08.054Z,61.66
2018-02-20T00:51:36.512Z,61.72
2018-02-20T00:54:05.040Z,61.63
2018-02-20T00:56:33.935Z,61.89
2018-02-20T00:59:02.490Z,61.55
2018-02-20T01:01:30.950Z,61.54
2018-02-20T01:03:59.506Z,60.91
2018-02-20T01:06:27.986Z,61.54
2018-02-20T01:08:56.442Z,61.85
2018-02-20T01:11:25.072Z,61.93
2018-02-20T01:13:53.541Z,62.28
2018-02-20T01:16:25.327Z,62.13
2018-02-20T01:18:53.833Z,62.38
2018-02-20T01:21:22.394Z,62.18
2018-02-20T01:23:52.862Z,62.56
2018-02-20T01:26:21.554Z,62.26
2018-02-20T01:28:50.030Z,62.33
2018-02-20T01:31:19.237Z,62.46
2018-02-20T01:33:47.845Z,62.01
2018-02-20T01:36:16.686Z,61.43
2018-02-20T01:38:45.131Z,61.20
2018-02-20T01:41:13.636Z,61.12
2018-02-20T01:43:42.117Z,61.33
2018-02-20T01:46:10.575Z,62.14
2018-02-20T01:48:39.259Z,62.83
2018-02-20T01:51:08.642Z,63.79
2018-02-20T01:53:37.245Z,64.45
2018-02-20T01:56:05.839Z,64.82
2018-02-20T01:58:35.438Z,64.94
2018-02-20T02:01:04.122Z,65.33
2018-02-20T02:03:32.810Z,65.53
2018-02-20T02:06:01.276Z,65.97
2018-02-20T02:08:29.790Z,66.18
2018-02-20T02:10:58.455Z,66.35
2018-02-20T02:13:26.928Z,66.76
2018-02-20T02:15:55.713Z,66.32
2018-02-20T02:18:24.575Z,65.82
2018-02-20T02:20:53.078Z,65.81
2018-02-20T02:23:21.502Z,65.69
2018-02-20T02:25:50.658Z,65.58
2018-02-20T02:28:19.175Z,65.36
2018-02-20T02:30:47.823Z,65.46
2018-02-20T02:33:16.573Z,66.10
2018-02-20T02:35:45.019Z,65.86
2018-02-20T02:38:13.435Z,65.94
2018-02-20T02:40:41.998Z,66.23
2018-02-20T02:43:10.431Z,66.69
2018-02-20T02:45:38.860Z,66.84
2018-02-20T02:48:07.750Z,66.78
2018-02-20T02:50:36.210Z,66.74
2018-02-20T02:53:04.792Z,66.91
2018-02-20T02:55:33.472Z,66.10
2018-02-20T02:58:02.063Z,65.94
2018-02-20T03:00:32.542Z,65.88
2018-02-20T03:03:01.034Z,65.65
2018-02-20T03:05:29.621Z,65.77
2018-02-20T03:07:58.078Z,65.81
2018-02-20T03:10:26.689Z,66.15
2018-02-20T03:12:55.129Z,65.82
2018-02-20T03:15:23.672Z,65.44
2018-02-20T03:17:52.430Z,65.50
2018-02-20T03:20:20.871Z,65.14
2018-02-20T03:22:49.295Z,65.30
2018-02-20T03:25:17.774Z,65.59
2018-02-20T03:27:46.224Z,65.33
2018-02-20T03:30:14.659Z,64.87
2018-02-20T03:32:43.114Z,65.03
2018-02-20T03:35:11.603Z,65.57
2018-02-20T03:37:40.072Z,65.62
2018-02-20T03:40:09.478Z,65.12
2018-02-20T03:42:38.028Z,65.31
2018-02-20T03:45:06.578Z,65.46
2018-02-20T03:47:35.135Z,65.20
2018-02-20T03:50:03.722Z,65.31
2018-02-20T03:52:32.601Z,65.61
2018-02-20T03:55:01.229Z,65.55
2018-02-20T03:57:29.748Z,65.06
2018-02-20T03:59:58.434Z,65.29
2018-02-20T04:02:28.118Z,65.81
2018-02-20T04:04:56.675Z,65.27
2018-02-20T04:07:25.154Z,65.55
2018-02-20T04:09:53.618Z,65.22
2018-02-20T04:12:22.065Z,65.46
2018-02-20T04:14:50.489Z,65.12
2018-02-20T04:17:18.975Z,65.73
2018-02-20T04:19:47.616Z,66.13
2018-02-20T04:22:16.110Z,66.06
2018-02-20T04:24:44.944Z,66.31
2018-02-20T04:27:13.367Z,66.74
2018-02-20T04:29:42.573Z,66.73
2018-02-20T04:32:11.033Z,66.50
2018-02-20T04:34:39.478Z,66.24
2018-02-20T04:37:07.995Z,66.58
2018-02-20T04:39:36.509Z,66.08
2018-02-20T04:42:04.989Z,66.25
2018-02-20T04:44:33.460Z,66.68
2018-02-20T04:47:02.352Z,66.48
2018-02-20T04:49:30.805Z,66.81
2018-02-20T04:51:59.307Z,66.56
2018-02-20T04:54:27.969Z,66.40
2018-02-20T04:56:56.425Z,66.63
2018-02-20T04:59:25.032Z,66.69
2018-02-20T05:01:54.099Z,67.25
2018-02-20T05:04:22.633Z,67.17
2018-02-20T05:06:51.097Z,67.19
2018-02-20T05:09:19.572Z,67.27
2018-02-20T05:11:48.048Z,66.94
2018-02-20T05:14:17.053Z,66.67
2018-02-20T05:16:45.735Z,66.84
2018-02-20T05:19:14.183Z,66.69
2018-02-20T05:21:42.641Z,66.88
2018-02-20T05:24:11.485Z,67.18
2018-02-20T05:26:39.953Z,67.21
2018-02-20T05:29:08.675Z,67.43
2018-02-20T05:31:37.329Z,67.50
2018-02-20T05:34:05.918Z,67.11
2018-02-20T05:36:34.500Z,67.10
2018-02-20T05:39:03.371Z,67.07
2018-02-20T05:41:32.308Z,66.79
2018-02-20T05:44:00.747Z,67.18
2018-02-20T05:46:29.510Z,66.95
2018-02-20T05:48:58.017Z,67.12
2018-02-20T05:51:26.502Z,67.02
2018-02-20T05:53:55.270Z,67.28
2018-02-20T05:56:23.733Z,67.10
2018-02-20T05:58:52.171Z,67.19
2018-02-20T06:01:20.628Z,66.99
2018-02-20T06:03:49.050Z,66.97
2018-02-20T06:06:17.609Z,66.77
2018-02-20T06:08:46.074Z,67.16
2018-02-20T06:11:14.517Z,66.93
2018-02-20T06:13:43.032Z,66.83
2018-02-20T06:16:11.582Z,67.04
2018-02-20T06:18:40.093Z,67.31
2018-02-20T06:21:08.605Z,67.41
2018-02-20T06:23:37.419Z,67.17
2018-02-20T06:26:05.921Z,67.15
2018-02-20T06:28:34.546Z,67.06
2018-02-20T06:31:04.025Z,66.95
2018-02-20T06:33:32.541Z,67.45
2018-02-20T06:36:00.988Z,67.27
2018-02-20T06:38:29.497Z,67.25
2018-02-20T06:40:57.943Z,67.60
2018-02-20T06:43:26.430Z,67.77
2018-02-20T06:45:54.935Z,68.34
2018-02-20T06:48:23.366Z,68.45
2018-02-20T06:50:51.872Z,68.33
2018-02-20T06:53:20.343Z,68.29
2018-02-20T06:55:48.837Z,68.47
2018-02-20T06:58:17.351Z,68.15
2018-02-20T07:00:45.953Z,68.15
2018-02-20T07:03:14.365Z,67.77
2018-02-20T07:05:42.841Z,67.64
2018-02-20T07:08:11.659Z,67.66
2018-02-20T07:10:40.252Z,68.37
2018-02-20T07:13:08.923Z,68.31
2018-02-20T07:15:37.518Z,68.22
2018-02-20T07:18:06.047Z,68.33
2018-02-20T07:20:34.556Z,68.82
2018-02-20T07:23:04.316Z,68.34
2018-02-20T07:25:32.881Z,67.90
2018-02-20T07:28:01.453Z,67.66
2018-02-20T07:30:30.184Z,67.50
2018-02-20T07:32:58.928Z,66.74
2018-02-20T07:35:27.347Z,67.20
2018-02-20T07:37:55.812Z,66.44
2018-02-20T07:40:24.344Z,66.22
2018-02-20T07:42:52.817Z,65.46
2018-02-20T07:45:21.350Z,65.39
2018-02-20T07:47:49.856Z,64.93
2018-02-20T07:50:18.359Z,64.28
2018-02-20T07:52:47.037Z,65.31
2018-02-20T07:55:15.707Z,65.20
2018-02-20T07:57:44.170Z,64.89
2018-02-20T08:00:13.096Z,65.23
2018-02-20T08:02:42.500Z,63.85
2018-02-20T08:05:11.293Z,64.12
2018-02-20T08:07:40.075Z,64.15
2018-02-20T08:10:08.557Z,64.07
2018-02-20T08:12:37.447Z,63.78
2018-02-20T08:15:06.308Z,63.47
2018-02-20T08:17:34.817Z,63.70
2018-02-20T08:20:03.401Z,64.53
2018-02-20T08:22:32.089Z,64.63
2018-02-20T08:25:04.174Z,64.96
2018-02-20T08:27:32.738Z,65.01
2018-02-20T08:30:01.733Z,65.64
2018-02-20T08:32:31.030Z,64.76
2018-02-20T08:34:59.890Z,64.22
2018-02-20T08:37:28.393Z,64.86
2018-02-20T08:39:56.945Z,65.08
2018-02-20T08:42:25.433Z,65.82
2018-02-20T08:44:54.041Z,64.72
2018-02-20T08:47:22.526Z,63.53
2018-02-20T08:49:51.060Z,62.39
2018-02-20T08:52:19.557Z,61.70
2018-02-20T08:54:48.546Z,60.61
2018-02-20T08:57:18.034Z,60.53
2018-02-20T08:59:46.790Z,60.78
2018-02-20T09:02:15.216Z,59.65
2018-02-20T09:04:43.853Z,58.62
2018-02-20T09:07:12.723Z,59.24
2018-02-20T09:09:41.170Z,56.90
2018-02-20T09:12:10.088Z,55.44
2018-02-20T09:14:38.601Z,55.10
2018-02-20T09:17:07.387Z,53.41
2018-02-20T09:19:39.453Z,53.75
2018-02-20T09:22:08.038Z,53.26
2018-02-20T09:24:36.591Z,53.28
2018-02-20T09:27:05.246Z,51.48
2018-02-20T09:29:33.779Z,51.20
2018-02-20T09:32:02.688Z,51.46
2018-02-20T09:34:31.255Z,49.83
2018-02-20T09:36:59.847Z,48.68
2018-02-20T09:39:28.288Z,49.74
2018-02-20T09:41:57.120Z,46.96
2018-02-20T09:44:25.575Z,46.10
2018-02-20T09:46:54.031Z,44.99
2018-02-20T09:49:22.484Z,44.55
2018-02-20T09:51:50.917Z,43.89
2018-02-20T09:54:19.378Z,44.24
2018-02-20T09:56:48.026Z,42.98
2018-02-20T09:59:16.515Z,42.17
2018-02-20T10:01:45.161Z,42.61
2018-02-20T10:04:14.409Z,42.05
2018-02-20T10:06:42.938Z,43.52
2018-02-20T10:09:11.823Z,43.61
2018-02-20T10:11:40.462Z,42.81
2018-02-20T10:14:08.948Z,42.21
2018-02-20T10:16:37.625Z,41.62
2018-02-20T10:19:06.260Z,42.50
2018-02-20T10:21:34.797Z,41.77
2018-02-20T10:24:03.636Z,41.32
2018-02-20T10:26:33.091Z,42.39
2018-02-20T10:29:02.401Z,42.37
2018-02-20T10:31:31.096Z,42.69
2018-02-20T10:33:59.675Z,41.01
2018-02-20T10:36:28.340Z,41.71
2018-02-20T10:41:30.859Z,40.24
2018-02-20T10:43:59.349Z,41.36
2018-02-20T10:46:27.901Z,40.01
2018-02-20T10:48:56.553Z,39.05
2018-02-20T10:51:25.037Z,38.46
2018-02-20T10:53:53.589Z,37.20
2018-02-20T10:56:22.461Z,39.85
2018-02-20T10:58:50.986Z,39.97
2018-02-20T11:01:19.474Z,39.30
2018-02-20T11:03:49.025Z,38.93
2018-02-20T11:06:17.586Z,39.95
2018-02-20T11:08:46.090Z,39.50
2018-02-20T11:11:14.884Z,40.39
2018-02-20T11:13:43.493Z,41.68
2018-02-20T11:16:12.377Z,40.54
2018-02-20T11:18:41.189Z,38.46
2018-02-20T11:21:09.847Z,38.96
2018-02-20T11:23:38.573Z,38.46
2018-02-20T11:26:07.251Z,38.32
2018-02-20T11:28:35.778Z,39.79
2018-02-20T11:31:04.369Z,40.96
2018-02-20T11:33:33.154Z,41.42
2018-02-20T11:36:01.736Z,42.40
2018-02-20T11:38:30.281Z,41.96
2018-02-20T11:40:59.173Z,41.67
2018-02-20T11:43:27.756Z,42.42
2018-02-20T11:45:56.240Z,41.89
2018-02-20T11:48:24.858Z,42.87
2018-02-20T11:50:53.361Z,43.06
2018-02-20T11:53:21.818Z,44.42
2018-02-20T11:55:51.274Z,45.03
2018-02-20T11:58:19.820Z,45.65
2018-02-20T12:00:48.389Z,46.43
2018-02-20T12:03:16.974Z,47.29
2018-02-20T12:05:45.522Z,47.79
2018-02-20T12:08:14.036Z,47.02
2018-02-20T12:10:43.032Z,47.55
2018-02-20T12:13:12.226Z,46.90
2018-02-20T12:15:40.890Z,47.49
2018-02-20T12:18:09.905Z,47.16
2018-02-20T12:20:38.489Z,45.73
2018-02-20T12:23:07.196Z,44.72
2018-02-20T12:25:36.389Z,44.63
2018-02-20T12:28:04.978Z,44.83
2018-02-20T12:30:35.388Z,46.03
2018-02-20T12:33:04.001Z,45.62
2018-02-20T12:35:32.548Z,45.65
2018-02-20T12:38:05.327Z,46.50
2018-02-20T12:40:34.141Z,46.92
2018-02-20T12:43:02.702Z,47.07
2018-02-20T12:45:32.200Z,47.29
2018-02-20T12:48:00.943Z,47.60
2018-02-20T12:50:29.393Z,47.17
2018-02-20T12:52:58.055Z,46.88
2018-02-20T12:55:26.544Z,46.64
2018-02-20T12:57:54.975Z,47.23
2018-02-20T13:00:24.927Z,48.01
2018-02-20T13:02:54.125Z,48.59
2018-02-20T13:05:22.586Z,47.42
2018-02-20T13:07:51.783Z,47.33
2018-02-20T13:10:20.285Z,47.32
2018-02-20T13:12:48.862Z,47.16
2018-02-20T13:15:17.942Z,47.00
2018-02-20T13:17:46.465Z,46.63
2018-02-20T13:20:14.965Z,47.44
2018-02-20T13:22:44.303Z,47.83
2018-02-20T13:25:12.995Z,47.14
2018-02-20T13:27:41.722Z,47.39
2018-02-20T13:30:10.221Z,48.17
2018-02-20T13:32:39.083Z,47.74
2018-02-20T13:35:07.606Z,47.62
2018-02-20T13:37:36.209Z,47.39
2018-02-20T13:40:04.765Z,47.73
2018-02-20T13:42:34.171Z,47.29
2018-02-20T13:45:03.324Z,47.67
2018-02-20T13:47:31.909Z,46.89
2018-02-20T13:50:00.597Z,46.71
2018-02-20T13:52:30.501Z,46.87
2018-02-20T13:54:59.065Z,46.75
2018-02-20T13:57:27.509Z,47.67
2018-02-20T13:59:56.660Z,48.09
2018-02-20T14:02:25.180Z,48.78
2018-02-20T14:04:53.725Z,48.92
2018-02-20T14:07:22.365Z,49.98
2018-02-20T14:09:52.697Z,50.75
2018-02-20T14:12:21.404Z,48.41
2018-02-20T14:14:50.498Z,48.72
2018-02-20T14:17:19.515Z,49.18
2018-02-20T14:19:48.175Z,49.58
2018-02-20T14:22:17.005Z,49.15
2018-02-20T14:24:45.494Z,49.52
2018-02-20T14:27:13.953Z,50.08
2018-02-20T14:29:42.702Z,51.32
2018-02-20T14:32:11.223Z,51.86
2018-02-20T14:34:39.725Z,52.12
2018-02-20T14:37:08.454Z,52.52
2018-02-20T14:39:37.241Z,52.31
2018-02-20T14:42:05.842Z,53.08
2018-02-20T14:44:34.771Z,52.95
2018-02-20T14:47:03.326Z,53.63
2018-02-20T14:49:31.887Z,53.75
2018-02-20T14:52:00.834Z,53.79
2018-02-20T14:54:30.421Z,53.61
2018-02-20T14:56:58.940Z,53.94
2018-02-20T14:59:28.598Z,53.94
2018-02-20T15:01:58.162Z,54.05
2018-02-20T15:04:26.691Z,54.42
2018-02-20T15:06:55.316Z,54.48
2018-02-20T15:09:23.799Z,54.75
2018-02-20T15:11:52.429Z,54.38
2018-02-20T15:14:21.712Z,54.31
2018-02-20T15:16:50.169Z,54.25
2018-02-20T15:19:18.772Z,54.39
2018-02-20T15:21:48.196Z,54.59
2018-02-20T15:24:16.693Z,54.53
2018-02-20T15:26:45.719Z,54.79
2018-02-20T15:29:14.556Z,55.43
2018-02-20T15:31:43.161Z,56.10
2018-02-20T15:34:12.027Z,56.04
2018-02-20T15:36:40.763Z,56.02
2018-02-20T15:39:09.733Z,56.04
2018-02-20T15:41:38.535Z,56.33
2018-02-20T15:44:07.927Z,56.77
2018-02-20T15:46:37.637Z,56.92
2018-02-20T15:49:06.230Z,57.41
2018-02-20T15:51:35.976Z,57.49
2018-02-20T15:54:04.637Z,57.30
2018-02-20T15:56:33.628Z,57.37
2018-02-20T15:59:02.971Z,57.54
2018-02-20T16:01:31.639Z,57.62
2018-02-20T16:04:00.282Z,57.68
2018-02-20T16:06:29.359Z,57.67
2018-02-20T16:08:58.034Z,57.67
2018-02-20T16:11:26.606Z,58.06
2018-02-20T16:14:03.988Z,58.14
2018-02-20T16:16:33.065Z,58.52
2018-02-20T16:19:01.642Z,58.74
2018-02-20T16:21:30.163Z,58.62
2018-02-20T16:23:58.676Z,59.18
2018-02-20T16:26:27.205Z,58.96
2018-02-20T16:28:55.772Z,58.87
2018-02-20T16:31:24.256Z,58.91
2018-02-20T16:33:52.824Z,58.83
2018-02-20T16:36:22.134Z,58.79
2018-02-20T16:38:51.013Z,59.18
2018-02-20T16:41:19.920Z,59.57
2018-02-20T16:43:49.504Z,59.75
2018-02-20T16:46:17.993Z,60.27
2018-02-20T16:48:46.736Z,60.13
2018-02-20T16:51:15.261Z,60.04
2018-02-20T16:53:43.745Z,59.97
2018-02-20T16:56:12.453Z,60.51
2018-02-20T16:58:41.132Z,60.52
2018-02-20T17:01:09.760Z,60.43
2018-02-20T17:03:38.340Z,60.07
2018-02-20T17:06:07.533Z,59.73
2018-02-20T17:08:36.135Z,59.95
2018-02-20T17:11:04.875Z,59.95
2018-02-20T17:13:34.040Z,59.85
2018-02-20T17:16:02.951Z,59.77
2018-02-20T17:18:31.780Z,59.65
2018-02-20T17:21:01.045Z,59.35
2018-02-20T17:23:29.580Z,59.54
2018-02-20T17:25:58.827Z,59.73
2018-02-20T17:28:30.478Z,59.61
2018-02-20T17:30:58.965Z,59.52
2018-02-20T17:33:27.800Z,59.05
2018-02-20T17:35:56.582Z,59.12
2018-02-20T17:38:25.123Z,58.79
2018-02-20T17:40:53.698Z,59.23
2018-02-20T17:43:22.945Z,59.25
2018-02-20T17:45:51.614Z,59.44
2018-02-20T17:48:20.193Z,59.57
2018-02-20T17:50:48.829Z,58.89
2018-02-20T17:53:19.720Z,58.79
2018-02-20T17:55:49.846Z,58.82
2018-02-20T17:58:18.350Z,58.96
2018-02-20T18:00:47.635Z,59.03
2018-02-20T18:03:16.286Z,58.82
2018-02-20T18:05:45.098Z,58.96
2018-02-20T18:08:13.987Z,59.08
2018-02-20T18:10:45.015Z,59.07
2018-02-20T18:13:13.946Z,59.19
2018-02-20T18:15:42.493Z,59.03
2018-02-20T18:18:11.797Z,59.08
2018-02-20T18:20:40.813Z,59.04
2018-02-20T18:23:09.994Z,58.80
2018-02-20T18:25:38.961Z,58.65
2018-02-20T18:28:11.764Z,58.59
2018-02-20T18:30:41.830Z,58.65
2018-02-20T18:33:21.401Z,58.31
2018-02-20T18:35:50.297Z,58.41
2018-02-20T18:38:19.057Z,58.82
2018-02-20T18:40:47.630Z,58.50
2018-02-20T18:43:16.159Z,58.53
2018-02-20T18:45:45.356Z,58.03
2018-02-20T18:48:29.306Z,58.27
2018-02-20T18:50:58.441Z,57.99
2018-02-20T18:53:26.996Z,58.05
2018-02-20T18:55:56.262Z,58.17
2018-02-20T19:01:19.287Z,58.31
2018-02-20T19:03:49.606Z,58.69
2018-02-20T19:06:18.440Z,58.94
2018-02-20T19:08:48.775Z,58.64
2018-02-20T19:11:18.890Z,58.88
2018-02-20T19:13:49.911Z,59.34
2018-02-20T19:16:18.442Z,58.94
2018-02-20T19:18:47.456Z,59.25
2018-02-20T19:21:16.256Z,59.16
2018-02-20T19:23:45.113Z,59.28
2018-02-20T19:26:14.028Z,59.46
2018-02-20T19:28:45.983Z,59.82
2018-02-20T19:31:14.581Z,59.74
2018-02-20T19:33:43.668Z,59.80
2018-02-20T19:36:12.820Z,59.88
2018-02-20T19:38:41.656Z,59.78
2018-02-20T19:41:11.498Z,59.56
2018-02-20T19:43:41.259Z,59.65
2018-02-20T19:46:11.064Z,59.41
2018-02-20T19:48:39.868Z,59.72
2018-02-20T19:51:09.442Z,59.84
2018-02-20T19:53:38.341Z,59.42
2018-02-20T19:56:11.027Z,59.60
2018-02-20T19:58:40.251Z,59.56
2018-02-20T20:01:08.896Z,60.04
2018-02-20T20:03:38.375Z,59.94
2018-02-20T20:06:06.996Z,60.13
2018-02-20T20:08:35.597Z,59.81
2018-02-20T20:11:04.223Z,60.17
2018-02-20T20:13:33.023Z,60.13
2018-02-20T20:16:01.514Z,59.92
2018-02-20T20:18:30.286Z,60.04
2018-02-20T20:20:58.779Z,60.41
2018-02-20T20:23:27.339Z,60.50
2018-02-20T20:25:57.041Z,60.78
2018-02-20T20:28:26.648Z,60.74
2018-02-20T20:30:55.136Z,60.46
2018-02-20T20:33:24.210Z,60.64
2018-02-20T20:35:52.844Z,60.53
2018-02-20T20:38:21.420Z,60.44
2018-02-20T20:40:50.005Z,60.75
2018-02-20T20:43:18.587Z,60.83
2018-02-20T20:45:47.288Z,60.93
2018-02-20T20:48:16.597Z,60.80
2018-02-20T20:50:45.051Z,60.96
2018-02-20T20:53:13.650Z,61.05
2018-02-20T20:55:42.353Z,60.86
2018-02-20T20:58:11.174Z,61.23
2018-02-20T21:00:39.789Z,61.70
2018-02-20T21:03:09.909Z,61.48
2018-02-20T21:05:39.025Z,61.24
2018-02-20T21:08:09.248Z,61.29
2018-02-20T21:10:37.946Z,61.40
2018-02-20T21:13:06.762Z,61.83
2018-02-20T21:15:35.877Z,61.66
2018-02-20T21:18:04.798Z,62.02
2018-02-20T21:20:34.532Z,61.62
2018-02-20T21:23:03.770Z,61.68
2018-02-20T21:25:34.289Z,62.12
2018-02-20T21:28:02.963Z,62.24
2018-02-20T21:30:31.636Z,61.69
2018-02-20T21:33:00.790Z,61.78
2018-02-20T21:35:29.430Z,62.07
2018-02-20T21:37:57.956Z,62.29
2018-02-20T21:40:26.901Z,62.08
2018-02-20T21:42:55.470Z,62.17
2018-02-20T21:45:24.124Z,62.18
2018-02-20T21:47:52.720Z,62.00
2018-02-20T21:50:23.481Z,62.11
2018-02-20T21:52:52.359Z,62.17
2018-02-20T21:55:21.796Z,62.03
2018-02-20T21:57:50.830Z,62.62
2018-02-20T22:00:19.407Z,62.60
2018-02-20T22:02:48.721Z,62.71
2018-02-20T22:05:17.712Z,62.20
2018-02-20T22:07:46.543Z,62.49
2018-02-20T22:10:15.281Z,62.57
2018-02-20T22:12:43.948Z,62.67
2018-02-20T22:15:12.843Z,62.39
2018-02-20T22:17:42.360Z,62.58
2018-02-20T22:20:10.948Z,62.56
2018-02-20T22:22:39.864Z,62.51
2018-02-20T22:25:09.139Z,62.46
2018-02-20T22:27:37.728Z,62.30
2018-02-20T22:30:06.308Z,62.25
2018-02-20T22:32:35.899Z,62.10
2018-02-20T22:35:04.726Z,62.24
2018-02-20T22:37:33.290Z,62.83
2018-02-20T22:40:01.840Z,62.67
2018-02-20T22:42:30.335Z,62.69
2018-02-20T22:44:58.808Z,62.80
2018-02-20T22:47:27.714Z,63.08
2018-02-20T22:49:56.165Z,62.83
2018-02-20T22:52:24.773Z,63.00
2018-02-20T22:54:54.464Z,62.94
2018-02-20T22:57:22.951Z,62.92
2018-02-20T22:59:51.438Z,63.21
2018-02-20T23:02:20.031Z,62.75
2018-02-20T23:04:48.550Z,62.57
2018-02-20T23:07:17.055Z,62.84
2018-02-20T23:09:45.766Z,62.87
2018-02-20T23:12:14.331Z,62.80
2018-02-20T23:14:42.868Z,62.84
2018-02-20T23:17:11.520Z,63.09
2018-02-20T23:19:40.010Z,62.95
2018-02-20T23:22:08.503Z,63.09
2018-02-20T23:24:37.119Z,62.75
2018-02-20T23:27:05.670Z,63.22
2018-02-20T23:29:34.709Z,63.16
2018-02-20T23:32:03.333Z,63.32
2018-02-20T23:34:32.827Z,63.20
2018-02-20T23:37:02.078Z,63.17
2018-02-20T23:39:30.708Z,63.70
2018-02-20T23:41:59.841Z,63.58
2018-02-20T23:44:28.302Z,63.51
2018-02-20T23:46:57.795Z,63.62
2018-02-20T23:49:26.237Z,63.34
2018-02-20T23:51:54.687Z,63.38
2018-02-20T23:54:23.648Z,64.22
2018-02-20T23:56:52.163Z,63.85
2018-02-20T23:59:20.607Z,64.07
